createdAt,value
2019-01-27T00:01:12.589Z,98839.47
2019-01-27T00:03:42.191Z,98832.04
2019-01-27T00:06:11.610Z,98840.28
2019-01-27T00:08:40.916Z,98836.98
2019-01-27T00:11:10.248Z,98837.63
2019-01-27T00:13:39.992Z,98825.44
2019-01-27T00:16:09.297Z,98819.14
2019-01-27T00:18:38.893Z,98807.10
2019-01-27T00:21:08.236Z,98815.02
2019-01-27T00:23:37.552Z,98804.94
2019-01-27T00:26:07.207Z,98804.95
2019-01-27T00:28:36.923Z,98802.78
2019-01-27T00:31:06.515Z,98803.63
2019-01-27T00:33:35.822Z,98802.29
2019-01-27T00:36:05.539Z,98798.02
2019-01-27T00:38:34.940Z,98792.06
2019-01-27T00:41:04.279Z,98796.04
2019-01-27T00:43:33.607Z,98794.55
2019-01-27T00:46:03.255Z,98789.27
2019-01-27T00:48:32.623Z,98783.31
2019-01-27T00:51:02.250Z,98775.89
2019-01-27T00:53:31.860Z,98778.05
2019-01-27T00:56:01.199Z,98763.38
2019-01-27T00:58:30.517Z,98760.73
2019-01-27T01:00:59.837Z,98757.90
2019-01-27T01:03:29.181Z,98758.43
2019-01-27T01:05:58.506Z,98745.53
2019-01-27T01:08:28.158Z,98746.55
2019-01-27T01:10:57.870Z,98740.94
2019-01-27T01:13:27.593Z,98736.63
2019-01-27T01:15:56.958Z,98729.54
2019-01-27T01:18:26.308Z,98736.95
2019-01-27T01:20:55.657Z,98731.67
2019-01-27T01:23:24.965Z,98731.33
2019-01-27T01:25:54.577Z,98729.84
2019-01-27T01:28:23.943Z,98727.70
2019-01-27T01:30:53.595Z,98724.57
2019-01-27T01:33:22.917Z,98722.77
2019-01-27T01:35:52.607Z,98717.48
2019-01-27T01:38:21.933Z,98709.88
2019-01-27T01:40:51.617Z,98712.02
2019-01-27T01:43:20.943Z,98709.87
2019-01-27T01:45:50.294Z,98701.98
2019-01-27T01:48:19.913Z,98699.02
2019-01-27T01:50:49.362Z,98687.97
2019-01-27T01:53:18.704Z,98684.16
2019-01-27T01:55:48.023Z,98674.56
2019-01-27T01:58:17.324Z,98671.43
2019-01-27T02:00:46.683Z,98661.06
2019-01-27T02:03:16.428Z,98658.43
2019-01-27T02:05:45.724Z,98651.98
2019-01-27T02:08:15.331Z,98650.98
2019-01-27T02:10:44.937Z,98639.13
2019-01-27T02:13:14.301Z,98635.66
2019-01-27T02:15:59.547Z,98629.73
2019-01-27T02:18:28.884Z,98628.41
2019-01-27T02:20:58.356Z,98618.68
2019-01-27T02:23:28.033Z,98619.52
2019-01-27T02:25:57.341Z,98607.64
2019-01-27T02:28:27.055Z,98603.52
2019-01-27T02:30:56.832Z,98601.36
2019-01-27T02:33:26.444Z,98591.64
2019-01-27T02:35:56.056Z,98587.86
2019-01-27T02:38:25.787Z,98586.06
2019-01-27T02:40:55.469Z,98582.93
2019-01-27T02:43:25.289Z,98574.67
2019-01-27T02:45:54.902Z,98562.17
2019-01-27T02:48:24.610Z,98566.13
2019-01-27T02:50:54.226Z,98552.75
2019-01-27T02:53:23.825Z,98549.62
2019-01-27T02:55:53.171Z,98538.09
2019-01-27T02:58:22.506Z,98532.00
2019-01-27T03:00:52.125Z,98530.67
2019-01-27T03:03:21.506Z,98526.08
2019-01-27T03:05:53.481Z,98520.62
2019-01-27T03:08:23.190Z,98515.53
2019-01-27T03:10:53.010Z,98503.83
2019-01-27T03:13:22.348Z,98508.12
2019-01-27T03:15:51.680Z,98497.08
2019-01-27T03:18:21.012Z,98495.58
2019-01-27T03:20:50.355Z,98483.41
2019-01-27T03:23:19.656Z,98474.48
2019-01-27T03:25:48.980Z,98464.95
2019-01-27T03:28:18.296Z,98465.27
2019-01-27T03:30:47.688Z,98452.61
2019-01-27T03:33:17.023Z,98444.52
2019-01-27T03:35:46.384Z,98450.62
2019-01-27T03:38:15.718Z,98450.62
2019-01-27T03:40:45.047Z,98445.20
2019-01-27T03:43:14.737Z,98445.50
2019-01-27T03:45:44.381Z,98441.05
2019-01-27T03:48:13.701Z,98434.16
2019-01-27T03:50:43.050Z,98426.91
2019-01-27T03:53:12.737Z,98423.92
2019-01-27T03:55:42.034Z,98415.72
2019-01-27T03:58:11.345Z,98404.97
2019-01-27T04:00:40.764Z,98404.81
2019-01-27T04:03:10.433Z,98406.63
2019-01-27T04:05:40.040Z,98396.73
2019-01-27T04:08:10.180Z,98383.76
2019-01-27T04:10:39.492Z,98390.50
2019-01-27T04:13:08.867Z,98385.91
2019-01-27T04:15:38.468Z,98378.63
2019-01-27T04:18:07.800Z,98376.67
2019-01-27T04:20:37.113Z,98376.98
2019-01-27T04:23:06.417Z,98373.37
2019-01-27T04:25:35.807Z,98376.67
2019-01-27T04:28:05.163Z,98370.91
2019-01-27T04:30:36.117Z,98365.44
2019-01-27T04:33:06.135Z,98360.02
2019-01-27T04:35:35.791Z,98352.26
2019-01-27T04:38:05.183Z,98347.98
2019-01-27T04:40:34.837Z,98341.57
2019-01-27T04:43:04.184Z,98343.39
2019-01-27T04:45:38.202Z,98340.06
2019-01-27T04:48:07.916Z,98333.81
2019-01-27T04:50:37.245Z,98330.55
2019-01-27T04:53:06.591Z,98329.52
2019-01-27T04:55:36.301Z,98325.27
2019-01-27T04:58:06.109Z,98322.62
2019-01-27T05:00:35.793Z,98322.62
2019-01-27T05:03:09.419Z,98314.70
2019-01-27T05:05:38.817Z,98310.22
2019-01-27T05:08:08.490Z,98303.50
2019-01-27T05:10:37.828Z,98301.67
2019-01-27T05:13:07.515Z,98302.48
2019-01-27T05:15:36.855Z,98292.58
2019-01-27T05:18:06.530Z,98296.55
2019-01-27T05:20:36.157Z,98289.45
2019-01-27T05:23:05.828Z,98287.66
2019-01-27T05:25:35.203Z,98278.41
2019-01-27T05:28:04.839Z,98270.47
2019-01-27T05:30:34.442Z,98267.23
2019-01-27T05:33:04.049Z,98271.19
2019-01-27T05:35:33.381Z,98258.11
2019-01-27T05:38:02.959Z,98250.36
2019-01-27T05:40:32.570Z,98241.09
2019-01-27T05:43:02.173Z,98245.01
2019-01-27T05:45:31.478Z,98241.76
2019-01-27T05:48:01.191Z,98239.73
2019-01-27T05:50:30.897Z,98236.44
2019-01-27T05:53:00.518Z,98241.73
2019-01-27T05:55:30.222Z,98236.44
2019-01-27T05:57:59.839Z,98234.55
2019-01-27T06:00:40.691Z,98237.73
2019-01-27T06:03:10.391Z,98236.44
2019-01-27T06:05:40.014Z,98233.76
2019-01-27T06:08:09.337Z,98229.91
2019-01-27T06:10:39.025Z,98218.89
2019-01-27T06:13:08.726Z,98210.95
2019-01-27T06:15:38.086Z,98204.36
2019-01-27T06:18:07.423Z,98206.04
2019-01-27T06:20:36.753Z,98203.53
2019-01-27T06:23:06.436Z,98205.30
2019-01-27T06:25:35.816Z,98200.70
2019-01-27T06:28:05.442Z,98206.97
2019-01-27T06:30:35.164Z,98203.53
2019-01-27T06:33:15.109Z,98205.10
2019-01-27T06:35:44.915Z,98200.70
2019-01-27T06:38:14.235Z,98191.11
2019-01-27T06:40:43.924Z,98193.09
2019-01-27T06:43:13.354Z,98185.84
2019-01-27T06:45:43.033Z,98184.69
2019-01-27T06:48:12.729Z,98176.97
2019-01-27T06:50:42.074Z,98185.53
2019-01-27T06:53:11.739Z,98183.20
2019-01-27T06:55:41.082Z,98178.64
2019-01-27T06:58:10.408Z,98174.46
2019-01-27T07:00:50.271Z,98176.66
2019-01-27T07:03:23.700Z,98169.05
2019-01-27T07:05:52.798Z,98168.39
2019-01-27T07:08:41.827Z,98162.52
2019-01-27T07:11:21.680Z,98154.92
2019-01-27T07:14:05.825Z,98164.52
2019-01-27T07:16:46.503Z,98160.04
2019-01-27T07:19:36.276Z,98161.52
2019-01-27T07:22:15.912Z,98141.77
2019-01-27T07:24:52.633Z,98145.06
2019-01-27T07:27:29.678Z,98139.30
2019-01-27T07:30:00.660Z,98145.67
2019-01-27T07:32:34.849Z,98130.53
2019-01-27T07:35:09.049Z,98122.95
2019-01-27T07:37:46.124Z,98115.20
2019-01-27T07:40:29.027Z,98115.27
2019-01-27T07:43:03.062Z,98112.81
2019-01-27T07:45:37.279Z,98108.56
2019-01-27T07:48:08.630Z,98110.05
2019-01-27T07:50:40.665Z,98100.83
2019-01-27T07:53:11.680Z,98097.66
2019-01-27T07:55:46.025Z,98089.28
2019-01-27T07:58:23.495Z,98098.56
2019-01-27T08:00:54.476Z,98105.86
2019-01-27T08:03:41.675Z,98099.34
2019-01-27T08:06:18.639Z,98095.64
2019-01-27T08:08:55.556Z,98097.86
2019-01-27T08:11:28.170Z,98097.00
2019-01-27T08:14:14.166Z,98092.78
2019-01-27T08:16:45.882Z,98083.66
2019-01-27T08:19:17.305Z,98089.92
2019-01-27T08:22:03.229Z,98088.86
2019-01-27T08:24:50.888Z,98095.09
2019-01-27T08:27:24.878Z,98085.69
2019-01-27T08:29:55.814Z,98082.67
2019-01-27T08:32:33.914Z,98090.83
2019-01-27T08:35:07.934Z,98089.94
2019-01-27T08:37:51.335Z,98085.67
2019-01-27T08:40:22.670Z,98087.04
2019-01-27T08:42:53.743Z,98078.17
2019-01-27T08:45:25.035Z,98081.52
2019-01-27T08:47:54.444Z,98089.31
2019-01-27T08:50:24.027Z,98087.63
2019-01-27T08:52:53.774Z,98085.45
2019-01-27T08:55:23.487Z,98075.80
2019-01-27T08:57:52.788Z,98074.52
2019-01-27T09:00:23.798Z,98069.95
2019-01-27T09:02:55.014Z,98072.03
2019-01-27T09:05:41.288Z,98067.56
2019-01-27T09:08:24.207Z,98061.64
2019-01-27T09:10:55.173Z,98067.77
2019-01-27T09:13:35.270Z,98063.79
2019-01-27T09:16:08.968Z,98065.17
2019-01-27T09:18:43.533Z,98061.70
2019-01-27T09:21:16.782Z,98050.30
2019-01-27T09:23:52.793Z,98060.77
2019-01-27T09:26:39.828Z,98052.44
2019-01-27T09:29:10.775Z,98055.59
2019-01-27T09:31:50.130Z,98054.00
2019-01-27T09:34:21.386Z,98054.47
2019-01-27T09:37:08.430Z,98050.47
2019-01-27T09:39:49.356Z,98039.06
2019-01-27T09:42:20.599Z,98039.45
2019-01-27T09:45:07.798Z,98043.35
2019-01-27T09:47:53.778Z,98034.95
2019-01-27T09:50:33.753Z,98033.16
2019-01-27T09:53:05.002Z,98025.81
2019-01-27T09:55:38.873Z,98029.46
2019-01-27T09:58:10.268Z,98018.06
2019-01-27T10:00:41.231Z,98020.79
2019-01-27T10:03:28.290Z,98004.50
2019-01-27T10:06:14.335Z,98004.02
2019-01-27T10:08:45.665Z,98005.57
2019-01-27T10:11:26.450Z,98003.60
2019-01-27T10:13:57.858Z,98003.11
2019-01-27T10:16:38.009Z,98001.08
2019-01-27T10:19:09.347Z,98006.66
2019-01-27T10:21:43.575Z,97999.28
2019-01-27T10:24:32.859Z,98000.30
2019-01-27T10:27:06.860Z,97991.24
2019-01-27T10:29:43.827Z,97989.00
2019-01-27T10:32:21.027Z,97984.03
2019-01-27T10:34:54.508Z,97992.84
2019-01-27T10:37:41.026Z,97988.03
2019-01-27T10:40:12.925Z,97978.48
2019-01-27T10:42:43.911Z,97977.66
2019-01-27T10:45:14.902Z,97980.33
2019-01-27T10:48:01.291Z,97971.70
2019-01-27T10:50:32.299Z,97974.99
2019-01-27T10:53:03.258Z,97964.98
2019-01-27T10:55:37.298Z,97969.36
2019-01-27T10:58:27.489Z,97955.71
2019-01-27T11:01:01.154Z,97954.11
2019-01-27T11:03:32.169Z,97952.90
2019-01-27T11:06:21.698Z,97945.78
2019-01-27T11:08:56.143Z,97946.69
2019-01-27T11:11:27.544Z,97943.56
2019-01-27T11:14:01.201Z,97932.83
2019-01-27T11:20:30.607Z,97917.70
2019-01-27T11:23:08.239Z,97928.81
2019-01-27T11:25:46.065Z,97924.94
2019-01-27T11:28:17.090Z,97916.80
2019-01-27T11:30:54.808Z,97914.04
2019-01-27T11:33:26.009Z,97912.63
2019-01-27T11:36:13.415Z,97913.14
2019-01-27T11:38:44.459Z,97916.79
2019-01-27T11:41:18.820Z,97918.23
2019-01-27T11:43:59.535Z,97921.73
2019-01-27T11:46:36.093Z,97918.02
2019-01-27T11:49:18.902Z,97916.28
2019-01-27T11:51:48.647Z,97912.82
2019-01-27T11:54:18.082Z,97897.52
2019-01-27T11:56:47.813Z,97906.80
2019-01-27T11:59:18.107Z,97903.84
2019-01-27T12:01:47.741Z,97907.01
2019-01-27T12:04:18.131Z,97912.33
2019-01-27T12:06:47.539Z,97909.98
2019-01-27T12:09:16.826Z,97903.94
2019-01-27T12:11:46.406Z,97899.66
2019-01-27T12:14:16.039Z,97900.58
2019-01-27T12:16:45.596Z,97904.05
2019-01-27T12:19:14.915Z,97889.05
2019-01-27T12:21:44.272Z,97883.34
2019-01-27T12:24:13.633Z,97885.88
2019-01-27T12:26:43.280Z,97886.57
2019-01-27T12:29:12.934Z,97887.20
2019-01-27T12:31:42.346Z,97885.53
2019-01-27T12:34:11.668Z,97877.98
2019-01-27T12:36:41.063Z,97870.16
2019-01-27T12:39:10.810Z,97870.78
2019-01-27T12:41:40.135Z,97865.19
2019-01-27T12:44:09.634Z,97870.06
2019-01-27T12:46:38.995Z,97864.17
2019-01-27T12:49:08.421Z,97859.27
2019-01-27T12:51:38.261Z,97856.73
2019-01-27T12:54:08.401Z,97844.58
2019-01-27T12:56:37.889Z,97839.98
2019-01-27T12:59:07.561Z,97847.23
2019-01-27T13:01:37.191Z,97841.20
2019-01-27T13:04:06.973Z,97829.47
2019-01-27T13:06:36.608Z,97830.39
2019-01-27T13:09:07.746Z,97831.62
2019-01-27T13:11:37.307Z,97822.53
2019-01-27T13:14:06.622Z,97817.05
2019-01-27T13:16:36.297Z,97825.50
2019-01-27T13:19:05.671Z,97812.55
2019-01-27T13:21:35.111Z,97819.48
2019-01-27T13:24:04.672Z,97822.66
2019-01-27T13:26:34.020Z,97815.82
2019-01-27T13:29:03.387Z,97811.94
2019-01-27T13:31:32.708Z,97807.75
2019-01-27T13:34:02.335Z,97811.72
2019-01-27T13:36:31.970Z,97805.09
2019-01-27T13:39:01.302Z,97794.59
2019-01-27T13:41:30.829Z,97798.75
2019-01-27T13:44:01.880Z,97789.67
2019-01-27T13:46:31.378Z,97797.75
2019-01-27T13:49:00.940Z,97792.83
2019-01-27T13:51:30.913Z,97795.20
2019-01-27T13:54:03.932Z,97789.52
2019-01-27T13:56:33.348Z,97788.92
2019-01-27T13:59:05.150Z,97775.98
2019-01-27T14:01:34.466Z,97774.35
2019-01-27T14:04:08.670Z,97764.66
2019-01-27T14:06:38.063Z,97765.67
2019-01-27T14:09:08.405Z,97736.70
2019-01-27T14:11:37.947Z,97756.61
2019-01-27T14:14:07.340Z,97750.69
2019-01-27T14:16:36.962Z,97738.79
2019-01-27T14:19:06.285Z,97744.75
2019-01-27T14:21:36.039Z,97743.98
2019-01-27T14:24:05.884Z,97745.97
2019-01-27T14:26:35.584Z,97736.02
2019-01-27T14:29:04.940Z,97719.48
2019-01-27T14:31:34.327Z,97735.48
2019-01-27T14:34:03.706Z,97736.91
2019-01-27T14:36:35.089Z,97727.83
2019-01-27T14:39:07.535Z,97722.33
2019-01-27T14:41:37.519Z,97714.25
2019-01-27T14:44:07.058Z,97717.95
2019-01-27T14:46:36.697Z,97712.48
2019-01-27T14:49:06.032Z,97712.42
2019-01-27T14:51:35.691Z,97707.17
2019-01-27T14:54:05.892Z,97704.47
2019-01-27T14:56:35.220Z,97711.12
2019-01-27T14:59:04.565Z,97708.89
2019-01-27T15:01:34.233Z,97709.81
2019-01-27T15:04:03.833Z,97700.64
2019-01-27T15:06:33.448Z,97706.26
2019-01-27T15:09:03.087Z,97705.27
2019-01-27T15:11:33.066Z,97710.98
2019-01-27T15:14:08.348Z,97711.69
2019-01-27T15:16:43.586Z,97718.52
2019-01-27T15:19:13.366Z,97727.37
2019-01-27T15:21:43.074Z,97737.65
2019-01-27T15:24:12.444Z,97737.75
2019-01-27T15:26:42.181Z,97737.87
2019-01-27T15:29:11.485Z,97734.80
2019-01-27T15:31:40.815Z,97725.41
2019-01-27T15:34:10.399Z,97729.06
2019-01-27T15:36:40.101Z,97725.69
2019-01-27T15:39:10.805Z,97730.79
2019-01-27T15:41:40.555Z,97724.27
2019-01-27T15:44:09.885Z,97713.68
2019-01-27T15:46:39.633Z,97715.41
2019-01-27T15:49:09.008Z,97706.94
2019-01-27T15:51:38.370Z,97704.38
2019-01-27T15:54:07.973Z,97714.01
2019-01-27T15:56:37.277Z,97707.89
2019-01-27T15:59:06.883Z,97714.49
2019-01-27T16:01:36.354Z,97712.12
2019-01-27T16:04:05.994Z,97704.19
2019-01-27T16:06:35.579Z,97706.18
2019-01-27T16:09:06.021Z,97706.23
2019-01-27T16:11:35.637Z,97711.19
2019-01-27T16:14:05.634Z,97705.89
2019-01-27T16:16:34.963Z,97712.88
2019-01-27T16:19:04.434Z,97721.21
2019-01-27T16:21:34.085Z,97725.33
2019-01-27T16:24:05.068Z,97725.91
2019-01-27T16:26:34.390Z,97729.53
2019-01-27T16:29:04.031Z,97738.91
2019-01-27T16:31:35.288Z,97722.84
2019-01-27T16:34:06.297Z,97736.84
2019-01-27T16:36:35.619Z,97727.98
2019-01-27T16:39:09.459Z,97735.55
2019-01-27T16:41:38.932Z,97723.58
2019-01-27T16:44:08.346Z,97725.89
2019-01-27T16:46:37.963Z,97726.94
2019-01-27T16:49:07.577Z,97725.53
2019-01-27T16:51:37.203Z,97726.62
2019-01-27T16:54:06.563Z,97726.02
2019-01-27T16:56:36.022Z,97722.52
2019-01-27T16:59:06.448Z,97729.20
2019-01-27T17:01:39.516Z,97728.28
2019-01-27T17:04:09.536Z,97728.67
2019-01-27T17:06:39.151Z,97722.82
2019-01-27T17:09:09.592Z,97725.96
2019-01-27T17:11:39.225Z,97736.38
2019-01-27T17:14:08.862Z,97731.92
2019-01-27T17:16:39.879Z,97733.98
2019-01-27T17:19:09.529Z,97740.20
2019-01-27T17:21:42.195Z,97751.72
2019-01-27T17:24:11.763Z,97739.41
2019-01-27T17:26:44.163Z,97741.86
2019-01-27T17:29:13.803Z,97736.02
2019-01-27T17:31:44.880Z,97730.30
2019-01-27T17:34:14.420Z,97729.88
2019-01-27T17:36:43.929Z,97723.96
2019-01-27T17:39:13.491Z,97712.30
2019-01-27T17:41:43.534Z,97708.08
2019-01-27T17:44:13.315Z,97705.33
2019-01-27T17:46:42.884Z,97709.20
2019-01-27T17:49:12.371Z,97711.84
2019-01-27T17:51:42.181Z,97716.23
2019-01-27T17:54:11.549Z,97706.89
2019-01-27T17:56:41.295Z,97712.34
2019-01-27T17:59:12.552Z,97707.71
2019-01-27T18:01:43.490Z,97704.81
2019-01-27T18:04:21.094Z,97699.03
2019-01-27T18:07:08.519Z,97701.17
2019-01-27T18:09:49.166Z,97702.99
2019-01-27T18:12:20.619Z,97700.18
2019-01-27T18:14:49.950Z,97704.43
2019-01-27T18:17:25.091Z,97702.11
2019-01-27T18:19:54.751Z,97705.68
2019-01-27T18:22:24.382Z,97710.09
2019-01-27T18:24:53.696Z,97716.36
2019-01-27T18:27:23.282Z,97713.98
2019-01-27T18:29:52.626Z,97707.44
2019-01-27T18:32:21.931Z,97712.42
2019-01-27T18:34:51.812Z,97718.05
2019-01-27T18:37:21.356Z,97712.28
2019-01-27T18:39:50.994Z,97709.35
2019-01-27T18:42:20.632Z,97704.70
2019-01-27T18:44:50.103Z,97712.29
2019-01-27T18:47:19.465Z,97703.70
2019-01-27T18:49:48.746Z,97710.22
2019-01-27T18:52:18.080Z,97710.02
2019-01-27T18:54:49.344Z,97712.60
2019-01-27T18:57:20.672Z,97715.13
2019-01-27T18:59:54.374Z,97712.79
2019-01-27T19:02:31.771Z,97713.66
2019-01-27T19:05:05.721Z,97680.88
2019-01-27T19:07:46.266Z,97706.96
2019-01-27T19:10:20.198Z,97707.19
2019-01-27T19:12:54.466Z,97707.41
2019-01-27T19:15:25.421Z,97709.72
2019-01-27T19:18:12.271Z,97707.58
2019-01-27T19:20:44.400Z,97708.84
2019-01-27T19:23:19.826Z,97707.31
2019-01-27T19:25:59.822Z,97706.09
2019-01-27T19:28:39.924Z,97711.71
2019-01-27T19:31:14.691Z,97711.36
2019-01-27T19:33:58.736Z,97715.78
2019-01-27T19:36:32.881Z,97718.25
2019-01-27T19:39:19.007Z,97724.46
2019-01-27T19:44:32.169Z,97725.48
2019-01-27T19:47:06.452Z,97726.48
2019-01-27T19:49:37.723Z,97736.66
2019-01-27T19:52:11.754Z,97730.29
2019-01-27T19:54:55.537Z,97736.71
2019-01-27T19:57:35.795Z,97736.92
2019-01-27T20:00:16.866Z,97735.66
2019-01-27T20:02:56.744Z,97737.20
2019-01-27T20:05:28.000Z,97741.81
2019-01-27T20:08:14.137Z,97746.50
2019-01-27T20:10:51.602Z,97736.42
2019-01-27T20:13:25.635Z,97737.42
2019-01-27T20:16:09.572Z,97739.06
2019-01-27T20:18:52.560Z,97736.66
2019-01-27T20:21:29.663Z,97741.66
2019-01-27T20:24:15.574Z,97746.32
2019-01-27T20:26:58.377Z,97743.42
2019-01-27T20:29:33.516Z,97748.58
2019-01-27T20:32:13.430Z,97746.32
2019-01-27T20:34:53.882Z,97744.18
2019-01-27T20:37:28.071Z,97743.86
2019-01-27T20:40:02.208Z,97751.94
2019-01-27T20:42:38.674Z,97755.99
2019-01-27T20:45:14.353Z,97729.03
2019-01-27T20:47:57.615Z,97752.59
2019-01-27T20:50:38.567Z,97744.83
2019-01-27T20:53:09.665Z,97742.10
2019-01-27T20:55:46.643Z,97738.58
2019-01-27T20:58:17.980Z,97742.05
2019-01-27T21:01:00.906Z,97742.59
2019-01-27T21:03:35.235Z,97745.83
2019-01-27T21:06:15.097Z,97748.58
2019-01-27T21:08:55.275Z,97740.11
2019-01-27T21:11:42.359Z,97745.39
2019-01-27T21:14:22.046Z,97738.80
2019-01-27T21:16:58.794Z,97736.53
2019-01-27T21:19:30.007Z,97738.84
2019-01-27T21:21:59.399Z,97740.60
2019-01-27T21:24:28.905Z,97737.74
2019-01-27T21:26:58.280Z,97739.67
2019-01-27T21:29:28.110Z,97737.91
2019-01-27T21:31:59.597Z,97739.11
2019-01-27T21:34:31.798Z,97742.63
2019-01-27T21:37:01.445Z,97744.03
2019-01-27T21:39:31.216Z,97740.48
2019-01-27T21:42:00.521Z,97750.66
2019-01-27T21:44:29.876Z,97745.83
2019-01-27T21:46:59.178Z,97748.02
2019-01-27T21:49:28.855Z,97745.33
2019-01-27T21:51:58.579Z,97741.39
2019-01-27T21:54:28.191Z,97729.24
2019-01-27T21:56:57.982Z,97727.67
2019-01-27T21:59:27.838Z,97732.78
2019-01-27T22:01:57.510Z,97731.77
2019-01-27T22:04:26.907Z,97729.70
2019-01-27T22:06:56.234Z,97727.06
2019-01-27T22:09:25.590Z,97728.34
2019-01-27T22:11:54.946Z,97729.84
2019-01-27T22:14:24.561Z,97726.16
2019-01-27T22:16:54.114Z,97726.27
2019-01-27T22:19:23.724Z,97726.41
2019-01-27T22:21:53.345Z,97728.88
2019-01-27T22:24:23.138Z,97724.13
2019-01-27T22:26:52.730Z,97728.16
2019-01-27T22:29:22.389Z,97719.03
2019-01-27T22:31:51.728Z,97728.09
2019-01-27T22:34:21.043Z,97732.17
2019-01-27T22:36:50.865Z,97739.02
2019-01-27T22:39:20.507Z,97734.23
2019-01-27T22:41:49.941Z,97731.20
2019-01-27T22:44:19.269Z,97732.34
2019-01-27T22:46:48.592Z,97728.09
2019-01-27T22:49:18.269Z,97728.77
2019-01-27T22:51:47.592Z,97731.84
2019-01-27T22:54:16.936Z,97734.84
2019-01-27T22:56:46.567Z,97731.92
2019-01-27T22:59:15.890Z,97732.59
2019-01-27T23:01:45.571Z,97739.59
2019-01-27T23:04:14.882Z,97731.59
2019-01-27T23:06:44.264Z,97730.67
2019-01-27T23:09:15.485Z,97732.28
2019-01-27T23:11:45.126Z,97736.80
2019-01-27T23:14:16.074Z,97726.24
2019-01-27T23:16:45.405Z,97727.66
2019-01-27T23:19:14.974Z,97728.45
2019-01-27T23:21:44.376Z,97732.73
2019-01-27T23:24:13.680Z,97732.95
2019-01-27T23:26:43.016Z,97735.20
2019-01-27T23:29:12.337Z,97739.16
2019-01-27T23:31:41.989Z,97738.23
2019-01-27T23:34:11.775Z,97740.02
2019-01-27T23:36:41.366Z,97742.20
2019-01-27T23:39:10.710Z,97747.77
2019-01-27T23:41:40.378Z,97744.09
2019-01-27T23:44:09.707Z,97754.44
2019-01-27T23:46:39.062Z,97757.94
2019-01-27T23:49:08.373Z,97757.12
2019-01-27T23:51:37.974Z,97760.91
2019-01-27T23:54:07.555Z,97760.73
2019-01-27T23:56:37.232Z,97764.08
2019-01-27T23:59:06.830Z,97769.69
